createdAt,value
2023-04-07T00:00:55.265Z,18.73
2023-04-07T00:01:55.394Z,18.76
2023-04-07T00:02:55.477Z,18.73
2023-04-07T00:03:55.623Z,18.73
2023-04-07T00:04:55.549Z,18.76
2023-04-07T00:05:55.581Z,18.73
2023-04-07T00:06:55.618Z,18.74
2023-04-07T00:07:56.972Z,18.74
2023-04-07T00:08:55.708Z,18.73
2023-04-07T00:09:55.779Z,18.76
2023-04-07T00:10:55.858Z,18.73
2023-04-07T00:11:55.916Z,18.74
2023-04-07T00:12:55.941Z,18.71
2023-04-07T00:13:56.179Z,18.73
2023-04-07T00:14:56.047Z,18.71
2023-04-07T00:15:56.177Z,18.73
2023-04-07T00:16:56.164Z,18.74
2023-04-07T00:17:56.315Z,18.76
2023-04-07T00:18:56.288Z,18.70
2023-04-07T00:19:56.341Z,18.71
2023-04-07T00:20:56.405Z,18.73
2023-04-07T00:21:56.435Z,18.71
2023-04-07T00:22:56.471Z,18.74
2023-04-07T00:23:56.541Z,18.73
2023-04-07T00:24:56.562Z,18.70
2023-04-07T00:25:56.633Z,18.74
2023-04-07T00:26:56.675Z,18.74
2023-04-07T00:27:56.715Z,18.73
2023-04-07T00:28:56.760Z,18.74
2023-04-07T00:29:56.806Z,18.73
2023-04-07T00:30:56.872Z,18.73
2023-04-07T00:31:56.911Z,18.74
2023-04-07T00:32:57.005Z,18.73
2023-04-07T00:33:57.121Z,18.71
2023-04-07T00:34:57.030Z,18.74
2023-04-07T00:35:57.075Z,18.73
2023-04-07T00:36:57.132Z,18.70
2023-04-07T00:37:57.174Z,18.71
2023-04-07T00:38:57.230Z,18.71
2023-04-07T00:39:57.303Z,18.71
2023-04-07T00:40:57.360Z,18.73
2023-04-07T00:41:57.416Z,18.74
2023-04-07T00:42:57.450Z,18.74
2023-04-07T00:43:57.504Z,18.74
2023-04-07T00:44:57.608Z,18.73
2023-04-07T00:45:57.644Z,18.73
2023-04-07T00:46:57.731Z,18.73
2023-04-07T00:47:57.821Z,18.73
2023-04-07T00:48:57.868Z,18.71
2023-04-07T00:49:57.946Z,18.74
2023-04-07T00:50:58.015Z,18.73
2023-04-07T00:51:58.082Z,18.73
2023-04-07T00:52:58.166Z,18.73
2023-04-07T00:53:58.187Z,18.71
2023-04-07T00:54:58.236Z,18.71
2023-04-07T00:55:58.275Z,18.71
2023-04-07T00:56:58.302Z,18.76
2023-04-07T00:57:58.341Z,18.73
2023-04-07T00:58:58.372Z,18.73
2023-04-07T00:59:58.405Z,18.73
2023-04-07T01:00:58.444Z,18.73
2023-04-07T01:01:58.546Z,18.74
2023-04-07T01:02:58.647Z,18.73
2023-04-07T01:03:58.952Z,18.71
2023-04-07T01:04:58.677Z,18.71
2023-04-07T01:05:58.617Z,18.74
2023-04-07T01:06:58.642Z,18.73
2023-04-07T01:07:58.670Z,18.71
2023-04-07T01:08:58.714Z,18.73
2023-04-07T01:09:58.742Z,18.76
2023-04-07T01:10:58.790Z,18.73
2023-04-07T01:11:58.817Z,18.74
2023-04-07T01:12:58.841Z,18.71
2023-04-07T01:13:58.877Z,18.71
2023-04-07T01:14:58.928Z,18.71
2023-04-07T01:15:58.966Z,18.68
2023-04-07T01:16:58.994Z,18.70
2023-04-07T01:17:59.061Z,18.73
2023-04-07T01:18:59.066Z,18.71
2023-04-07T01:19:59.114Z,18.70
2023-04-07T01:20:59.149Z,18.71
2023-04-07T01:21:59.200Z,18.71
2023-04-07T01:22:59.249Z,18.71
2023-04-07T01:23:59.310Z,18.70
2023-04-07T01:24:59.368Z,18.71
2023-04-07T01:25:59.412Z,18.71
2023-04-07T01:26:59.445Z,18.71
2023-04-07T01:27:59.486Z,18.70
2023-04-07T01:28:59.525Z,18.73
2023-04-07T01:29:59.561Z,18.71
2023-04-07T01:30:59.605Z,18.73
2023-04-07T01:31:59.692Z,18.70
2023-04-07T01:32:59.701Z,18.71
2023-04-07T01:33:59.692Z,18.71
2023-04-07T01:34:59.725Z,18.73
2023-04-07T01:35:59.759Z,18.70
2023-04-07T01:36:59.840Z,18.73
2023-04-07T01:37:59.840Z,18.73
2023-04-07T01:38:59.868Z,18.73
2023-04-07T01:39:59.904Z,18.71
2023-04-07T01:40:59.940Z,18.73
2023-04-07T01:41:59.965Z,18.73
2023-04-07T01:43:00.006Z,18.73
2023-04-07T01:44:00.047Z,18.74
2023-04-07T01:45:00.176Z,18.73
2023-04-07T01:46:00.140Z,18.71
2023-04-07T01:47:00.192Z,18.71
2023-04-07T01:48:00.241Z,18.71
2023-04-07T01:49:00.231Z,18.71
2023-04-07T01:50:00.263Z,18.71
2023-04-07T01:51:00.309Z,18.70
2023-04-07T01:52:00.362Z,18.70
2023-04-07T01:53:00.381Z,18.70
2023-04-07T01:54:00.424Z,18.73
2023-04-07T01:55:00.448Z,18.68
2023-04-07T01:56:00.497Z,18.68
2023-04-07T01:57:00.518Z,18.71
2023-04-07T01:58:00.548Z,18.73
2023-04-07T01:59:00.597Z,18.70
2023-04-07T02:00:00.773Z,18.73
2023-04-07T02:01:00.687Z,18.71
2023-04-07T02:02:00.766Z,18.71
2023-04-07T02:03:00.858Z,18.70
2023-04-07T02:04:00.858Z,18.70
2023-04-07T02:05:00.825Z,18.71
2023-04-07T02:06:00.833Z,18.70
2023-04-07T02:07:00.883Z,18.70
2023-04-07T02:08:00.916Z,18.68
2023-04-07T02:09:00.938Z,18.70
2023-04-07T02:10:00.970Z,18.68
2023-04-07T02:11:01.020Z,18.71
2023-04-07T02:12:01.053Z,18.68
2023-04-07T02:13:01.070Z,18.71
2023-04-07T02:14:01.112Z,18.70
2023-04-07T02:15:01.142Z,18.70
2023-04-07T02:16:01.200Z,18.70
2023-04-07T02:17:01.207Z,18.70
2023-04-07T02:18:01.296Z,18.70
2023-04-07T02:19:01.287Z,18.70
2023-04-07T02:20:01.331Z,18.71
2023-04-07T02:21:01.387Z,18.68
2023-04-07T02:22:01.397Z,18.70
2023-04-07T02:23:01.435Z,18.71
2023-04-07T02:24:01.481Z,18.70
2023-04-07T02:25:01.520Z,18.71
2023-04-07T02:26:01.549Z,18.71
2023-04-07T02:27:01.595Z,18.70
2023-04-07T02:28:01.636Z,18.70
2023-04-07T02:29:01.652Z,18.70
2023-04-07T02:30:01.705Z,18.70
2023-04-07T02:31:01.733Z,18.70
2023-04-07T02:32:01.887Z,18.71
2023-04-07T02:33:01.845Z,18.70
2023-04-07T02:34:01.847Z,18.70
2023-04-07T02:35:01.921Z,18.68
2023-04-07T02:36:01.914Z,18.70
2023-04-07T02:37:01.978Z,18.70
2023-04-07T02:38:02.018Z,18.70
2023-04-07T02:39:02.025Z,18.70
2023-04-07T02:40:02.053Z,18.67
2023-04-07T02:41:02.100Z,18.70
2023-04-07T02:42:02.111Z,18.68
2023-04-07T02:43:02.141Z,18.68
2023-04-07T02:44:02.209Z,18.70
2023-04-07T02:45:02.207Z,18.68
2023-04-07T02:46:02.301Z,18.67
2023-04-07T02:47:02.285Z,18.71
2023-04-07T02:48:02.386Z,18.71
2023-04-07T02:49:02.357Z,18.68
2023-04-07T02:50:02.397Z,18.70
2023-04-07T02:51:02.442Z,18.68
2023-04-07T02:52:02.476Z,18.70
2023-04-07T02:53:02.517Z,18.68
2023-04-07T02:54:02.553Z,18.68
2023-04-07T02:55:02.587Z,18.67
2023-04-07T02:56:02.637Z,18.68
2023-04-07T02:57:02.653Z,18.68
2023-04-07T02:58:02.711Z,18.68
2023-04-07T02:59:02.736Z,18.71
2023-04-07T03:00:02.788Z,18.68
2023-04-07T03:01:02.846Z,18.67
2023-04-07T03:02:03.089Z,18.67
2023-04-07T03:03:03.079Z,18.67
2023-04-07T03:04:03.120Z,18.68
2023-04-07T03:05:02.965Z,18.66
2023-04-07T03:06:03.025Z,18.67
2023-04-07T03:07:03.071Z,18.68
2023-04-07T03:08:03.118Z,18.70
2023-04-07T03:09:03.149Z,18.66
2023-04-07T03:10:03.189Z,18.67
2023-04-07T03:11:03.246Z,18.67
2023-04-07T03:12:03.275Z,18.68
2023-04-07T03:13:03.295Z,18.67
2023-04-07T03:14:03.334Z,18.68
2023-04-07T03:15:03.369Z,18.68
2023-04-07T03:16:03.406Z,18.68
2023-04-07T03:17:03.507Z,18.68
2023-04-07T03:18:03.513Z,18.67
2023-04-07T03:19:03.515Z,18.68
2023-04-07T03:20:03.556Z,18.67
2023-04-07T03:21:03.613Z,18.67
2023-04-07T03:22:03.635Z,18.66
2023-04-07T03:23:03.668Z,18.68
2023-04-07T03:24:03.702Z,18.68
2023-04-07T03:25:03.745Z,18.68
2023-04-07T03:26:03.768Z,18.66
2023-04-07T03:27:03.826Z,18.67
2023-04-07T03:28:03.842Z,18.66
2023-04-07T03:29:03.891Z,18.67
2023-04-07T03:30:03.925Z,18.66
2023-04-07T03:31:04.060Z,18.67
2023-04-07T03:32:03.983Z,18.66
2023-04-07T03:33:04.098Z,18.67
2023-04-07T03:34:04.068Z,18.64
2023-04-07T03:35:04.112Z,18.67
2023-04-07T03:36:04.233Z,18.67
2023-04-07T03:37:04.181Z,18.68
2023-04-07T03:38:04.232Z,18.63
2023-04-07T03:39:04.259Z,18.67
2023-04-07T03:40:04.299Z,18.67
2023-04-07T03:41:04.341Z,18.67
2023-04-07T03:42:04.368Z,18.64
2023-04-07T03:43:04.411Z,18.66
2023-04-07T03:44:04.448Z,18.64
2023-04-07T03:45:04.481Z,18.66
2023-04-07T03:46:04.578Z,18.66
2023-04-07T03:47:04.550Z,18.64
2023-04-07T03:48:04.646Z,18.66
2023-04-07T03:49:04.631Z,18.66
2023-04-07T03:50:04.691Z,18.66
2023-04-07T03:51:04.717Z,18.67
2023-04-07T03:52:04.777Z,18.66
2023-04-07T03:53:04.786Z,18.67
2023-04-07T03:54:04.846Z,18.67
2023-04-07T03:55:04.874Z,18.67
2023-04-07T03:56:04.916Z,18.67
2023-04-07T03:57:04.962Z,18.66
2023-04-07T03:58:05.004Z,18.67
2023-04-07T03:59:05.046Z,18.64
2023-04-07T04:00:05.089Z,18.66
2023-04-07T04:01:05.132Z,18.68
2023-04-07T04:02:05.200Z,18.63
2023-04-07T04:03:05.287Z,18.64
2023-04-07T04:04:05.392Z,18.66
2023-04-07T04:05:05.275Z,18.64
2023-04-07T04:06:05.328Z,18.64
2023-04-07T04:07:05.374Z,18.66
2023-04-07T04:08:05.403Z,18.64
2023-04-07T04:09:05.440Z,18.64
2023-04-07T04:10:05.474Z,18.66
2023-04-07T04:11:05.524Z,18.64
2023-04-07T04:12:05.590Z,18.66
2023-04-07T04:13:05.601Z,18.64
2023-04-07T04:14:05.644Z,18.66
2023-04-07T04:15:05.675Z,18.64
2023-04-07T04:16:05.719Z,18.66
2023-04-07T04:17:05.916Z,18.64
2023-04-07T04:18:05.801Z,18.64
2023-04-07T04:19:05.827Z,18.63
2023-04-07T04:20:05.875Z,18.63
2023-04-07T04:21:05.896Z,18.64
2023-04-07T04:22:05.937Z,18.64
2023-04-07T04:23:05.983Z,18.63
2023-04-07T04:24:06.024Z,18.64
2023-04-07T04:25:06.064Z,18.62
2023-04-07T04:26:06.111Z,18.63
2023-04-07T04:27:06.159Z,18.63
2023-04-07T04:28:06.218Z,18.64
2023-04-07T04:29:06.264Z,18.64
2023-04-07T04:30:06.309Z,18.62
2023-04-07T04:31:06.397Z,18.66
2023-04-07T04:32:06.395Z,18.64
2023-04-07T04:33:06.446Z,18.62
2023-04-07T04:34:06.470Z,18.62
2023-04-07T04:35:06.515Z,18.63
2023-04-07T04:36:06.536Z,18.64
2023-04-07T04:37:06.590Z,18.64
2023-04-07T04:38:06.613Z,18.63
2023-04-07T04:39:06.644Z,18.64
2023-04-07T04:40:06.697Z,18.62
2023-04-07T04:41:06.735Z,18.63
2023-04-07T04:42:06.768Z,18.63
2023-04-07T04:43:06.845Z,18.62
2023-04-07T04:44:07.040Z,18.60
2023-04-07T04:45:06.889Z,18.64
2023-04-07T04:46:06.946Z,18.63
2023-04-07T04:47:07.053Z,18.62
2023-04-07T04:48:07.091Z,18.62
2023-04-07T04:49:07.097Z,18.63
2023-04-07T04:50:07.135Z,18.62
2023-04-07T04:51:07.186Z,18.64
2023-04-07T04:52:07.230Z,18.63
2023-04-07T04:53:07.338Z,18.64
2023-04-07T04:54:07.307Z,18.63
2023-04-07T04:55:07.338Z,18.60
2023-04-07T04:56:07.380Z,18.62
2023-04-07T04:57:07.452Z,18.62
2023-04-07T04:58:07.463Z,18.63
2023-04-07T04:59:07.508Z,18.63
2023-04-07T05:00:07.551Z,18.64
2023-04-07T05:01:07.595Z,18.60
2023-04-07T05:02:07.799Z,18.62
2023-04-07T05:03:07.923Z,18.63
2023-04-07T05:04:07.831Z,18.63
2023-04-07T05:05:07.766Z,18.60
2023-04-07T05:06:07.781Z,18.63
2023-04-07T05:07:07.822Z,18.62
2023-04-07T05:08:07.878Z,18.62
2023-04-07T05:09:07.903Z,18.63
2023-04-07T05:10:07.936Z,18.60
2023-04-07T05:11:07.966Z,18.64
2023-04-07T05:12:08.008Z,18.60
2023-04-07T05:13:08.058Z,18.60
2023-04-07T05:14:08.079Z,18.59
2023-04-07T05:15:08.125Z,18.62
2023-04-07T05:16:08.172Z,18.62
2023-04-07T05:17:08.206Z,18.62
2023-04-07T05:18:08.245Z,18.62
2023-04-07T05:19:08.272Z,18.62
2023-04-07T05:20:08.304Z,18.63
2023-04-07T05:21:08.351Z,18.62
2023-04-07T05:22:08.405Z,18.62
2023-04-07T05:23:08.435Z,18.62
2023-04-07T05:24:09.459Z,18.60
2023-04-07T05:25:08.508Z,18.63
2023-04-07T05:26:08.556Z,18.62
2023-04-07T05:27:08.589Z,18.63
2023-04-07T05:28:08.635Z,18.62
2023-04-07T05:29:08.854Z,18.60
2023-04-07T05:30:08.715Z,18.59
2023-04-07T05:31:08.793Z,18.60
2023-04-07T05:32:08.884Z,18.60
2023-04-07T05:33:08.853Z,18.62
2023-04-07T05:34:08.871Z,18.60
2023-04-07T05:35:08.914Z,18.60
2023-04-07T05:36:08.968Z,18.63
2023-04-07T05:37:08.997Z,18.60
2023-04-07T05:38:09.027Z,18.62
2023-04-07T05:39:09.070Z,18.62
2023-04-07T05:40:09.118Z,18.60
2023-04-07T05:41:09.158Z,18.60
2023-04-07T05:42:09.211Z,18.60
2023-04-07T05:43:09.292Z,18.60
2023-04-07T05:44:09.308Z,18.60
2023-04-07T05:45:09.358Z,18.62
2023-04-07T05:46:09.522Z,18.62
2023-04-07T05:47:09.444Z,18.60
2023-04-07T05:48:09.535Z,18.62
2023-04-07T05:50:09.561Z,18.62
2023-04-07T05:51:09.604Z,18.62
2023-04-07T05:52:09.645Z,18.62
2023-04-07T05:53:09.690Z,18.62
2023-04-07T05:54:09.790Z,18.64
2023-04-07T05:55:09.757Z,18.62
2023-04-07T05:56:09.797Z,18.63
2023-04-07T05:57:09.854Z,18.63
2023-04-07T05:58:09.873Z,18.66
2023-04-07T05:59:09.931Z,18.64
2023-04-07T06:00:09.942Z,18.62
2023-04-07T06:01:09.974Z,18.64
2023-04-07T06:02:10.044Z,18.63
2023-04-07T06:03:10.103Z,18.63
2023-04-07T06:04:10.083Z,18.66
2023-04-07T06:05:10.152Z,18.70
2023-04-07T06:06:10.160Z,18.66
2023-04-07T06:07:10.211Z,18.66
2023-04-07T06:08:10.256Z,18.66
2023-04-07T06:09:10.291Z,18.63
2023-04-07T06:10:10.310Z,18.66
2023-04-07T06:11:10.361Z,18.68
2023-04-07T06:12:10.390Z,18.66
2023-04-07T06:13:10.418Z,18.67
2023-04-07T06:14:10.470Z,18.68
2023-04-07T06:15:10.497Z,18.70
2023-04-07T06:16:10.584Z,18.70
2023-04-07T06:17:10.576Z,18.71
2023-04-07T06:18:10.615Z,18.71
2023-04-07T06:19:10.641Z,18.71
2023-04-07T06:20:10.709Z,18.71
2023-04-07T06:21:10.726Z,18.73
2023-04-07T06:22:10.759Z,18.73
2023-04-07T06:23:10.781Z,18.74
2023-04-07T06:24:10.825Z,18.76
2023-04-07T06:25:10.857Z,18.74
2023-04-07T06:26:10.893Z,18.73
2023-04-07T06:27:10.931Z,18.76
2023-04-07T06:28:10.970Z,18.77
2023-04-07T06:29:11.003Z,18.77
2023-04-07T06:30:11.044Z,18.76
2023-04-07T06:31:11.125Z,18.77
2023-04-07T06:32:11.110Z,18.76
2023-04-07T06:33:11.154Z,18.77
2023-04-07T06:34:11.176Z,18.77
2023-04-07T06:35:11.207Z,18.74
2023-04-07T06:36:11.242Z,18.78
2023-04-07T06:37:11.302Z,18.77
2023-04-07T06:38:11.317Z,18.78
2023-04-07T06:39:11.334Z,18.80
2023-04-07T06:40:11.376Z,18.80
2023-04-07T06:41:11.401Z,18.80
2023-04-07T06:42:11.430Z,18.82
2023-04-07T06:43:11.465Z,18.86
2023-04-07T06:44:11.483Z,18.87
2023-04-07T06:45:11.511Z,18.90
2023-04-07T06:46:11.570Z,18.90
2023-04-07T06:47:11.569Z,18.93
2023-04-07T06:48:11.608Z,18.91
2023-04-07T06:49:11.632Z,18.94
2023-04-07T06:50:11.651Z,18.97
2023-04-07T06:51:11.680Z,18.98
2023-04-07T06:52:11.696Z,18.97
2023-04-07T06:53:11.740Z,19.01
2023-04-07T06:54:11.755Z,19.03
2023-04-07T06:55:11.803Z,19.06
2023-04-07T06:56:11.838Z,19.07
2023-04-07T06:57:11.872Z,19.08
2023-04-07T06:58:11.900Z,19.11
2023-04-07T06:59:11.920Z,19.13
2023-04-07T07:00:11.949Z,19.13
2023-04-07T07:01:12.007Z,19.13
2023-04-07T07:02:12.164Z,19.13
2023-04-07T07:03:12.179Z,19.19
2023-04-07T07:04:12.257Z,19.17
2023-04-07T07:05:12.289Z,19.22
2023-04-07T07:06:12.392Z,19.19
2023-04-07T07:07:12.481Z,19.22
2023-04-07T07:08:12.587Z,19.22
2023-04-07T07:09:12.672Z,19.24
2023-04-07T07:10:12.802Z,19.24
2023-04-07T07:11:12.864Z,19.25
2023-04-07T07:12:12.955Z,19.25
2023-04-07T07:13:13.071Z,19.24
2023-04-07T07:14:13.160Z,19.27
2023-04-07T07:15:13.235Z,19.28
2023-04-07T07:16:13.454Z,19.29
2023-04-07T07:17:13.422Z,19.31
2023-04-07T07:18:13.516Z,19.31
2023-04-07T07:19:13.612Z,19.28
2023-04-07T07:20:13.713Z,19.31
2023-04-07T07:21:13.806Z,19.29
2023-04-07T07:22:13.890Z,19.32
2023-04-07T07:23:13.982Z,19.32
2023-04-07T07:24:14.076Z,19.32
2023-04-07T07:25:14.162Z,19.34
2023-04-07T07:26:14.256Z,19.34
2023-04-07T07:27:14.349Z,19.35
2023-04-07T07:28:14.451Z,19.35
2023-04-07T07:29:14.533Z,19.35
2023-04-07T07:30:14.622Z,19.35
2023-04-07T07:31:14.737Z,19.37
2023-04-07T07:32:14.807Z,19.38
2023-04-07T07:33:14.899Z,19.37
2023-04-07T07:34:14.984Z,19.38
2023-04-07T07:35:15.073Z,19.34
2023-04-07T07:36:15.166Z,19.38
2023-04-07T07:37:15.260Z,19.37
2023-04-07T07:38:15.352Z,19.38
2023-04-07T07:39:15.442Z,19.41
2023-04-07T07:40:15.532Z,19.38
2023-04-07T07:41:15.645Z,19.37
2023-04-07T07:42:15.720Z,19.42
2023-04-07T07:43:15.820Z,19.39
2023-04-07T07:44:15.900Z,19.39
2023-04-07T07:45:16.003Z,19.39
2023-04-07T07:46:16.104Z,19.41
2023-04-07T07:47:16.166Z,19.42
2023-04-07T07:48:17.062Z,19.42
2023-04-07T07:49:16.350Z,19.41
2023-04-07T07:50:16.451Z,19.41
2023-04-07T07:51:16.550Z,19.44
2023-04-07T07:52:16.638Z,19.45
2023-04-07T07:53:16.735Z,19.42
2023-04-07T07:54:16.826Z,19.41
2023-04-07T07:55:16.934Z,19.42
2023-04-07T07:56:17.005Z,19.42
2023-04-07T07:57:17.097Z,19.44
2023-04-07T07:58:17.190Z,19.41
2023-04-07T07:59:17.925Z,19.44
2023-04-07T08:00:18.069Z,19.44
2023-04-07T08:01:17.462Z,19.45
2023-04-07T08:02:17.603Z,19.44
2023-04-07T08:03:17.768Z,19.45
2023-04-07T08:04:18.072Z,19.42
2023-04-07T08:05:17.827Z,19.44
2023-04-07T08:06:17.929Z,19.45
2023-04-07T08:07:18.003Z,19.45
2023-04-07T08:08:18.121Z,19.47
2023-04-07T08:09:18.172Z,19.44
2023-04-07T08:10:18.266Z,19.45
2023-04-07T08:11:18.991Z,19.45
2023-04-07T08:12:18.461Z,19.44
2023-04-07T08:13:18.541Z,19.42
2023-04-07T08:14:18.642Z,19.45
2023-04-07T08:15:18.736Z,19.45
2023-04-07T08:16:18.833Z,19.45
2023-04-07T08:17:18.908Z,19.48
2023-04-07T08:18:19.003Z,19.47
2023-04-07T08:19:19.090Z,19.45
2023-04-07T08:20:19.213Z,19.49
2023-04-07T08:21:19.287Z,19.47
2023-04-07T08:22:19.380Z,19.48
2023-04-07T08:23:19.476Z,19.51
2023-04-07T08:24:19.562Z,19.48
2023-04-07T08:25:19.652Z,19.49
2023-04-07T08:26:19.742Z,19.49
2023-04-07T08:27:19.828Z,19.51
2023-04-07T08:28:19.910Z,19.49
2023-04-07T08:29:19.996Z,19.51
2023-04-07T08:30:20.093Z,19.51
2023-04-07T08:31:20.176Z,19.52
2023-04-07T08:32:20.270Z,19.51
2023-04-07T08:33:20.349Z,19.51
2023-04-07T08:34:20.447Z,19.51
2023-04-07T08:35:20.544Z,19.52
2023-04-07T08:36:20.653Z,19.51
2023-04-07T08:37:20.700Z,19.52
2023-04-07T08:38:20.783Z,19.52
2023-04-07T08:39:20.883Z,19.51
2023-04-07T08:40:20.970Z,19.52
2023-04-07T08:41:21.068Z,19.52
2023-04-07T08:42:21.140Z,19.52
2023-04-07T08:43:21.241Z,19.52
2023-04-07T08:44:21.319Z,19.48
2023-04-07T08:45:21.414Z,19.52
2023-04-07T08:46:21.524Z,19.51
2023-04-07T08:47:21.622Z,19.51
2023-04-07T08:48:21.696Z,19.54
2023-04-07T08:49:21.779Z,19.49
2023-04-07T08:50:21.875Z,19.52
2023-04-07T08:51:21.959Z,19.52
2023-04-07T08:52:22.058Z,19.49
2023-04-07T08:53:22.154Z,19.52
2023-04-07T08:54:22.249Z,19.54
2023-04-07T08:55:22.330Z,19.54
2023-04-07T08:56:22.427Z,19.54
2023-04-07T08:57:22.568Z,19.52
2023-04-07T08:58:22.722Z,19.52
2023-04-07T08:59:22.695Z,19.52
2023-04-07T09:00:22.856Z,19.52
2023-04-07T09:01:22.885Z,19.54
2023-04-07T09:02:22.961Z,19.57
2023-04-07T09:03:23.142Z,19.55
2023-04-07T09:04:23.223Z,19.57
2023-04-07T09:05:23.234Z,19.55
2023-04-07T09:06:23.325Z,19.54
2023-04-07T09:07:23.416Z,19.55
2023-04-07T09:08:23.502Z,19.55
2023-04-07T09:09:23.586Z,19.57
2023-04-07T09:10:23.680Z,19.57
2023-04-07T09:11:23.774Z,19.57
2023-04-07T09:12:23.855Z,19.55
2023-04-07T09:13:23.955Z,19.55
2023-04-07T09:14:24.031Z,19.55
2023-04-07T09:15:24.129Z,19.54
2023-04-07T09:16:24.231Z,19.57
2023-04-07T09:17:24.340Z,19.55
2023-04-07T09:18:24.404Z,19.55
2023-04-07T09:19:24.495Z,19.55
2023-04-07T09:20:24.574Z,19.57
2023-04-07T09:21:24.668Z,19.57
2023-04-07T09:22:24.754Z,19.54
2023-04-07T09:23:24.846Z,19.54
2023-04-07T09:24:24.945Z,19.54
2023-04-07T09:25:25.044Z,19.55
2023-04-07T09:26:25.121Z,19.58
2023-04-07T09:27:25.216Z,19.57
2023-04-07T09:28:25.298Z,19.54
2023-04-07T09:29:25.378Z,19.52
2023-04-07T09:30:25.472Z,19.55
2023-04-07T09:31:25.593Z,19.55
2023-04-07T09:32:25.689Z,19.55
2023-04-07T09:33:25.744Z,19.54
2023-04-07T09:34:25.840Z,19.57
2023-04-07T09:35:25.924Z,19.55
2023-04-07T09:36:26.017Z,19.55
2023-04-07T09:37:26.108Z,19.57
2023-04-07T09:38:26.202Z,19.58
2023-04-07T09:39:26.298Z,19.57
2023-04-07T09:40:26.405Z,19.55
2023-04-07T09:41:26.497Z,19.57
2023-04-07T09:42:26.560Z,19.58
2023-04-07T09:43:26.670Z,19.55
2023-04-07T09:44:26.728Z,19.61
2023-04-07T09:45:34.724Z,19.59
2023-04-07T09:46:27.865Z,19.61
2023-04-07T09:47:26.895Z,19.61
2023-04-07T09:48:26.893Z,19.59
2023-04-07T09:49:26.936Z,19.62
2023-04-07T09:50:26.964Z,19.62
2023-04-07T09:51:26.998Z,19.64
2023-04-07T09:52:27.017Z,19.65
2023-04-07T09:53:27.042Z,19.64
2023-04-07T09:54:27.079Z,19.62
2023-04-07T09:55:27.113Z,19.61
2023-04-07T09:56:27.164Z,19.61
2023-04-07T09:57:27.246Z,19.61
2023-04-07T09:58:27.346Z,19.65
2023-04-07T09:59:27.460Z,19.64
2023-04-07T10:00:27.526Z,19.61
2023-04-07T10:01:27.698Z,19.64
2023-04-07T10:02:27.812Z,19.64
2023-04-07T10:03:27.838Z,19.64
2023-04-07T10:04:27.938Z,19.65
2023-04-07T10:05:27.968Z,19.65
2023-04-07T10:06:28.051Z,19.62
2023-04-07T10:07:28.143Z,19.62
2023-04-07T10:08:28.227Z,19.64
2023-04-07T10:09:28.314Z,19.65
2023-04-07T10:10:28.407Z,19.65
2023-04-07T10:11:28.485Z,19.65
2023-04-07T10:12:28.583Z,19.66
2023-04-07T10:13:28.678Z,19.65
2023-04-07T10:14:28.778Z,19.68
2023-04-07T10:15:28.862Z,19.68
2023-04-07T10:16:29.012Z,19.68
2023-04-07T10:17:29.046Z,19.70
2023-04-07T10:18:29.128Z,19.68
2023-04-07T10:19:29.223Z,19.69
2023-04-07T10:20:29.309Z,19.68
2023-04-07T10:21:30.795Z,19.72
2023-04-07T10:22:29.476Z,19.68
2023-04-07T10:23:29.548Z,19.69
2023-04-07T10:24:29.631Z,19.69
2023-04-07T10:25:29.725Z,19.70
2023-04-07T10:26:29.815Z,19.73
2023-04-07T10:27:29.888Z,19.75
2023-04-07T10:28:29.977Z,19.75
2023-04-07T10:29:30.059Z,19.73
2023-04-07T10:30:30.140Z,19.73
2023-04-07T10:31:30.270Z,19.72
2023-04-07T10:32:30.399Z,19.73
2023-04-07T10:33:30.395Z,19.73
2023-04-07T10:34:30.485Z,19.75
2023-04-07T10:35:30.596Z,19.76
2023-04-07T10:36:30.648Z,19.73
2023-04-07T10:37:30.712Z,19.76
2023-04-07T10:38:30.782Z,19.78
2023-04-07T10:39:30.861Z,19.78
2023-04-07T10:40:30.944Z,19.75
2023-04-07T10:41:31.024Z,19.78
2023-04-07T10:42:31.094Z,19.78
2023-04-07T10:43:31.170Z,19.78
2023-04-07T10:44:31.257Z,19.80
2023-04-07T10:45:31.337Z,19.80
2023-04-07T10:46:31.461Z,19.80
2023-04-07T10:47:31.583Z,19.79
2023-04-07T10:48:31.567Z,19.80
2023-04-07T10:49:31.642Z,19.80
2023-04-07T10:50:31.718Z,19.83
2023-04-07T10:51:31.792Z,19.82
2023-04-07T10:52:31.878Z,19.83
2023-04-07T10:53:31.957Z,19.85
2023-04-07T10:54:32.044Z,19.85
2023-04-07T10:55:32.163Z,19.85
2023-04-07T10:56:32.195Z,19.86
2023-04-07T10:57:32.275Z,19.85
2023-04-07T10:58:32.360Z,19.88
2023-04-07T10:59:32.435Z,19.86
2023-04-07T11:00:32.518Z,19.86
2023-04-07T11:01:32.641Z,19.85
2023-04-07T11:02:32.920Z,19.83
2023-04-07T11:03:32.839Z,19.83
2023-04-07T11:04:32.945Z,19.80
2023-04-07T11:05:32.908Z,19.82
2023-04-07T11:06:32.977Z,19.78
2023-04-07T11:07:33.072Z,19.78
2023-04-07T11:08:33.152Z,19.78
2023-04-07T11:09:33.232Z,19.76
2023-04-07T11:10:33.315Z,19.75
2023-04-07T11:11:33.410Z,19.75
2023-04-07T11:12:33.490Z,19.73
2023-04-07T11:13:33.559Z,19.73
2023-04-07T11:14:33.639Z,19.72
2023-04-07T11:15:33.819Z,19.72
2023-04-07T11:16:33.833Z,19.70
2023-04-07T11:17:33.944Z,19.72
2023-04-07T11:18:33.971Z,19.69
2023-04-07T11:19:34.043Z,19.70
2023-04-07T11:20:34.128Z,19.68
2023-04-07T11:21:34.210Z,19.68
2023-04-07T11:22:34.296Z,19.69
2023-04-07T11:23:34.378Z,19.69
2023-04-07T11:24:34.463Z,19.69
2023-04-07T11:25:34.541Z,19.66
2023-04-07T11:26:34.637Z,19.66
2023-04-07T11:27:34.708Z,19.65
2023-04-07T11:28:34.853Z,19.66
2023-04-07T11:29:34.875Z,19.64
2023-04-07T11:30:34.963Z,19.66
2023-04-07T11:31:35.078Z,19.66
2023-04-07T11:32:35.150Z,19.66
2023-04-07T11:33:35.211Z,19.65
2023-04-07T11:34:35.301Z,19.65
2023-04-07T11:35:35.418Z,19.65
2023-04-07T11:36:35.479Z,19.64
2023-04-07T11:37:35.546Z,19.65
2023-04-07T11:38:35.633Z,19.64
2023-04-07T11:39:35.720Z,19.64
2023-04-07T11:40:35.824Z,19.62
2023-04-07T11:41:35.890Z,19.62
2023-04-07T11:42:35.977Z,19.62
2023-04-07T11:43:36.051Z,19.64
2023-04-07T11:44:36.134Z,19.64
2023-04-07T11:45:36.258Z,19.65
2023-04-07T11:46:36.359Z,19.65
2023-04-07T11:47:36.473Z,19.64
2023-04-07T11:48:36.472Z,19.65
2023-04-07T11:49:36.557Z,19.65
2023-04-07T11:50:36.638Z,19.65
2023-04-07T11:51:36.720Z,19.62
2023-04-07T11:52:36.791Z,19.65
2023-04-07T11:53:36.867Z,19.65
2023-04-07T11:54:36.945Z,19.65
2023-04-07T11:55:37.025Z,19.68
2023-04-07T11:56:37.086Z,19.69
2023-04-07T11:57:37.156Z,19.69
2023-04-07T11:58:37.220Z,19.69
2023-04-07T11:59:37.300Z,19.69
2023-04-07T12:00:37.405Z,19.70
2023-04-07T12:01:37.501Z,19.73
2023-04-07T12:02:37.921Z,19.72
2023-04-07T12:03:37.856Z,19.70
2023-04-07T12:04:38.020Z,19.75
2023-04-07T12:05:37.775Z,19.73
2023-04-07T12:06:37.859Z,19.73
2023-04-07T12:07:37.941Z,19.78
2023-04-07T12:08:38.015Z,19.78
2023-04-07T12:09:38.264Z,19.79
2023-04-07T12:10:38.186Z,19.83
2023-04-07T12:11:38.261Z,19.78
2023-04-07T12:12:38.357Z,19.79
2023-04-07T12:13:38.436Z,19.73
2023-04-07T12:14:38.520Z,19.76
2023-04-07T12:15:38.595Z,19.75
2023-04-07T12:16:38.732Z,19.75
2023-04-07T12:17:38.782Z,19.72
2023-04-07T12:18:38.838Z,19.72
2023-04-07T12:19:38.913Z,19.72
2023-04-07T12:20:39.000Z,19.72
2023-04-07T12:21:39.081Z,19.75
2023-04-07T12:22:39.168Z,19.72
2023-04-07T12:23:39.236Z,19.73
2023-04-07T12:24:39.325Z,19.70
2023-04-07T12:25:39.408Z,19.70
2023-04-07T12:26:39.485Z,19.72
2023-04-07T12:27:43.649Z,19.68
2023-04-07T12:28:39.575Z,19.70
2023-04-07T12:29:39.605Z,19.70
2023-04-07T12:30:39.625Z,19.70
2023-04-07T12:31:39.715Z,19.69
2023-04-07T12:32:39.693Z,19.69
2023-04-07T12:33:39.714Z,19.70
2023-04-07T12:34:39.730Z,19.69
2023-04-07T12:35:39.817Z,19.68
2023-04-07T12:36:39.789Z,19.69
2023-04-07T12:37:39.804Z,19.70
2023-04-07T12:38:39.825Z,19.70
2023-04-07T12:39:39.860Z,19.72
2023-04-07T12:40:39.883Z,19.69
2023-04-07T12:41:39.906Z,19.69
2023-04-07T12:42:39.955Z,19.69
2023-04-07T12:43:39.971Z,19.70
2023-04-07T12:44:40.002Z,19.70
2023-04-07T12:45:40.692Z,19.69
2023-04-07T12:46:40.058Z,19.69
2023-04-07T12:47:40.133Z,19.69
2023-04-07T12:48:40.135Z,19.66
2023-04-07T12:49:40.223Z,19.70
2023-04-07T12:50:40.299Z,19.69
2023-04-07T12:51:40.466Z,19.70
2023-04-07T12:52:40.461Z,19.69
2023-04-07T12:53:40.547Z,19.66
2023-04-07T12:54:40.633Z,19.69